sensor_id;sensor_type;location;lat;lon;timestamp;P1;durP1;ratioP1;P2;durP2;ratioP2
66559;SDS011;53413;49.878;8.142;2023-12-20T00:02:21;5.90;;;2.00;;
66559;SDS011;53413;49.878;8.142;2023-12-20T00:04:46;6.57;;;2.30;;
66559;SDS011;53413;49.878;8.142;2023-12-20T00:07:12;6.37;;;2.27;;
66559;SDS011;53413;49.878;8.142;2023-12-20T00:09:37;8.50;;;2.25;;
66559;SDS011;53413;49.878;8.142;2023-12-20T00:12:02;6.07;;;2.17;;
66559;SDS011;53413;49.878;8.142;2023-12-20T00:14:28;6.10;;;2.30;;
66559;SDS011;53413;49.878;8.142;2023-12-20T00:16:53;6.00;;;2.20;;
66559;SDS011;53413;49.878;8.142;2023-12-20T00:19:18;5.87;;;2.10;;
66559;SDS011;53413;49.878;8.142;2023-12-20T00:21:44;5.97;;;1.93;;
66559;SDS011;53413;49.878;8.142;2023-12-20T00:24:09;5.77;;;2.10;;
66559;SDS011;53413;49.878;8.142;2023-12-20T00:26:34;6.20;;;2.20;;
66559;SDS011;53413;49.878;8.142;2023-12-20T00:29:00;6.10;;;2.00;;
66559;SDS011;53413;49.878;8.142;2023-12-20T00:31:25;6.28;;;1.77;;
66559;SDS011;53413;49.878;8.142;2023-12-20T00:33:50;4.90;;;1.80;;
66559;SDS011;53413;49.878;8.142;2023-12-20T00:36:16;5.57;;;1.80;;
66559;SDS011;53413;49.878;8.142;2023-12-20T00:38:41;5.63;;;2.00;;
66559;SDS011;53413;49.878;8.142;2023-12-20T00:41:06;5.33;;;1.80;;
66559;SDS011;53413;49.878;8.142;2023-12-20T00:43:32;5.00;;;1.70;;
66559;SDS011;53413;49.878;8.142;2023-12-20T00:45:57;5.23;;;1.77;;
66559;SDS011;53413;49.878;8.142;2023-12-20T00:48:22;5.47;;;1.87;;
66559;SDS011;53413;49.878;8.142;2023-12-20T00:50:48;5.35;;;1.80;;
66559;SDS011;53413;49.878;8.142;2023-12-20T00:53:13;5.97;;;1.70;;
66559;SDS011;53413;49.878;8.142;2023-12-20T00:55:38;4.80;;;1.47;;
66559;SDS011;53413;49.878;8.142;2023-12-20T00:58:06;6.80;;;2.07;;
66559;SDS011;53413;49.878;8.142;2023-12-20T01:00:32;5.38;;;2.00;;
66559;SDS011;53413;49.878;8.142;2023-12-20T01:02:57;5.53;;;1.80;;
66559;SDS011;53413;49.878;8.142;2023-12-20T01:05:23;6.53;;;2.07;;
66559;SDS011;53413;49.878;8.142;2023-12-20T01:07:48;4.43;;;1.93;;
66559;SDS011;53413;49.878;8.142;2023-12-20T01:10:14;5.80;;;1.90;;
66559;SDS011;53413;49.878;8.142;2023-12-20T01:12:39;6.10;;;1.90;;
66559;SDS011;53413;49.878;8.142;2023-12-20T01:15:05;5.73;;;2.00;;
66559;SDS011;53413;49.878;8.142;2023-12-20T01:17:30;6.10;;;1.95;;
66559;SDS011;53413;49.878;8.142;2023-12-20T01:19:56;5.00;;;1.73;;
66559;SDS011;53413;49.878;8.142;2023-12-20T01:22:21;5.20;;;1.70;;
66559;SDS011;53413;49.878;8.142;2023-12-20T01:24:46;4.63;;;1.57;;
66559;SDS011;53413;49.878;8.142;2023-12-20T01:27:12;5.03;;;1.80;;
66559;SDS011;53413;49.878;8.142;2023-12-20T01:29:37;4.27;;;1.67;;
66559;SDS011;53413;49.878;8.142;2023-12-20T01:32:02;5.00;;;1.60;;
66559;SDS011;53413;49.878;8.142;2023-12-20T01:34:28;5.25;;;1.70;;
66559;SDS011;53413;49.878;8.142;2023-12-20T01:36:53;4.33;;;1.70;;
66559;SDS011;53413;49.878;8.142;2023-12-20T01:39:18;4.60;;;1.47;;
66559;SDS011;53413;49.878;8.142;2023-12-20T01:41:44;5.33;;;1.53;;
66559;SDS011;53413;49.878;8.142;2023-12-20T01:44:10;4.57;;;1.50;;
66559;SDS011;53413;49.878;8.142;2023-12-20T01:46:36;5.93;;;1.70;;
66559;SDS011;53413;49.878;8.142;2023-12-20T01:49:01;4.93;;;1.80;;
66559;SDS011;53413;49.878;8.142;2023-12-20T01:51:27;4.35;;;1.50;;
66559;SDS011;53413;49.878;8.142;2023-12-20T01:53:53;5.03;;;1.60;;
66559;SDS011;53413;49.878;8.142;2023-12-20T01:56:22;4.25;;;1.48;;
66559;SDS011;53413;49.878;8.142;2023-12-20T01:58:47;4.73;;;1.50;;
66559;SDS011;53413;49.878;8.142;2023-12-20T02:01:13;4.45;;;1.27;;
66559;SDS011;53413;49.878;8.142;2023-12-20T02:03:40;4.93;;;1.50;;
66559;SDS011;53413;49.878;8.142;2023-12-20T02:06:07;5.72;;;2.00;;
66559;SDS011;53413;49.878;8.142;2023-12-20T02:08:32;4.28;;;1.50;;
66559;SDS011;53413;49.878;8.142;2023-12-20T02:10:59;5.07;;;1.63;;
66559;SDS011;53413;49.878;8.142;2023-12-20T02:13:25;5.07;;;1.70;;
66559;SDS011;53413;49.878;8.142;2023-12-20T02:15:51;4.57;;;1.50;;
66559;SDS011;53413;49.878;8.142;2023-12-20T02:18:17;4.10;;;1.30;;
66559;SDS011;53413;49.878;8.142;2023-12-20T02:20:42;5.13;;;1.43;;
66559;SDS011;53413;49.878;8.142;2023-12-20T02:23:08;4.03;;;1.40;;
66559;SDS011;53413;49.878;8.142;2023-12-20T02:25:33;4.90;;;1.60;;
66559;SDS011;53413;49.878;8.142;2023-12-20T02:27:58;4.30;;;1.50;;
66559;SDS011;53413;49.878;8.142;2023-12-20T02:30:24;4.60;;;1.48;;
66559;SDS011;53413;49.878;8.142;2023-12-20T02:32:49;4.53;;;1.30;;
66559;SDS011;53413;49.878;8.142;2023-12-20T02:35:15;5.30;;;1.60;;
66559;SDS011;53413;49.878;8.142;2023-12-20T02:37:40;4.53;;;1.43;;
66559;SDS011;53413;49.878;8.142;2023-12-20T02:40:05;4.93;;;1.63;;
66559;SDS011;53413;49.878;8.142;2023-12-20T02:42:33;4.60;;;1.40;;
66559;SDS011;53413;49.878;8.142;2023-12-20T02:44:58;4.63;;;1.20;;
66559;SDS011;53413;49.878;8.142;2023-12-20T02:47:23;4.93;;;1.60;;
66559;SDS011;53413;49.878;8.142;2023-12-20T02:49:49;4.30;;;1.40;;
66559;SDS011;53413;49.878;8.142;2023-12-20T02:52:14;5.22;;;1.70;;
66559;SDS011;53413;49.878;8.142;2023-12-20T02:54:40;5.00;;;1.40;;
66559;SDS011;53413;49.878;8.142;2023-12-20T02:57:05;3.93;;;1.27;;
66559;SDS011;53413;49.878;8.142;2023-12-20T02:59:31;4.53;;;1.20;;
66559;SDS011;53413;49.878;8.142;2023-12-20T03:01:56;4.70;;;1.40;;
66559;SDS011;53413;49.878;8.142;2023-12-20T03:04:22;3.90;;;1.20;;
66559;SDS011;53413;49.878;8.142;2023-12-20T03:06:47;4.23;;;1.30;;
66559;SDS011;53413;49.878;8.142;2023-12-20T03:09:13;3.80;;;1.20;;
66559;SDS011;53413;49.878;8.142;2023-12-20T03:11:38;3.70;;;1.10;;
66559;SDS011;53413;49.878;8.142;2023-12-20T03:14:04;3.50;;;1.10;;
66559;SDS011;53413;49.878;8.142;2023-12-20T03:16:29;4.07;;;1.20;;
66559;SDS011;53413;49.878;8.142;2023-12-20T03:18:56;4.10;;;1.25;;
66559;SDS011;53413;49.878;8.142;2023-12-20T03:21:21;4.03;;;1.20;;
66559;SDS011;53413;49.878;8.142;2023-12-20T03:23:49;5.07;;;1.30;;
66559;SDS011;53413;49.878;8.142;2023-12-20T03:26:15;4.07;;;1.30;;
66559;SDS011;53413;49.878;8.142;2023-12-20T03:28:40;4.13;;;1.20;;
66559;SDS011;53413;49.878;8.142;2023-12-20T03:31:05;4.10;;;1.40;;
66559;SDS011;53413;49.878;8.142;2023-12-20T03:33:31;3.50;;;1.10;;
66559;SDS011;53413;49.878;8.142;2023-12-20T03:35:56;4.00;;;1.10;;
66559;SDS011;53413;49.878;8.142;2023-12-20T03:38:22;3.47;;;1.13;;
66559;SDS011;53413;49.878;8.142;2023-12-20T03:40:49;4.33;;;1.30;;
66559;SDS011;53413;49.878;8.142;2023-12-20T03:43:15;3.03;;;0.93;;
66559;SDS011;53413;49.878;8.142;2023-12-20T03:45:40;3.60;;;1.10;;
66559;SDS011;53413;49.878;8.142;2023-12-20T03:48:06;3.13;;;0.90;;
66559;SDS011;53413;49.878;8.142;2023-12-20T03:50:32;3.35;;;0.93;;
66559;SDS011;53413;49.878;8.142;2023-12-20T03:52:57;3.28;;;0.90;;
66559;SDS011;53413;49.878;8.142;2023-12-20T03:55:22;4.10;;;1.00;;
66559;SDS011;53413;49.878;8.142;2023-12-20T03:57:48;3.50;;;1.20;;
66559;SDS011;53413;49.878;8.142;2023-12-20T04:00:13;3.20;;;1.00;;
66559;SDS011;53413;49.878;8.142;2023-12-20T04:02:39;3.07;;;0.90;;
66559;SDS011;53413;49.878;8.142;2023-12-20T04:05:05;3.53;;;1.00;;
66559;SDS011;53413;49.878;8.142;2023-12-20T04:07:31;3.13;;;0.90;;
66559;SDS011;53413;49.878;8.142;2023-12-20T04:09:57;4.45;;;1.17;;
66559;SDS011;53413;49.878;8.142;2023-12-20T04:12:23;3.72;;;1.10;;
66559;SDS011;53413;49.878;8.142;2023-12-20T04:14:48;3.83;;;1.17;;
66559;SDS011;53413;49.878;8.142;2023-12-20T04:17:14;4.53;;;1.20;;
66559;SDS011;53413;49.878;8.142;2023-12-20T04:19:41;4.07;;;1.10;;
66559;SDS011;53413;49.878;8.142;2023-12-20T04:22:06;3.67;;;1.00;;
66559;SDS011;53413;49.878;8.142;2023-12-20T04:24:32;3.83;;;1.00;;
66559;SDS011;53413;49.878;8.142;2023-12-20T04:26:57;3.33;;;1.10;;
66559;SDS011;53413;49.878;8.142;2023-12-20T04:29:22;3.60;;;1.10;;
66559;SDS011;53413;49.878;8.142;2023-12-20T04:31:48;3.20;;;0.90;;
66559;SDS011;53413;49.878;8.142;2023-12-20T04:34:16;3.40;;;0.93;;
66559;SDS011;53413;49.878;8.142;2023-12-20T04:36:41;3.97;;;1.00;;
66559;SDS011;53413;49.878;8.142;2023-12-20T04:39:07;3.20;;;1.08;;
66559;SDS011;53413;49.878;8.142;2023-12-20T04:41:32;3.50;;;1.00;;
66559;SDS011;53413;49.878;8.142;2023-12-20T04:43:58;5.30;;;1.20;;
66559;SDS011;53413;49.878;8.142;2023-12-20T04:46:23;3.20;;;0.90;;
66559;SDS011;53413;49.878;8.142;2023-12-20T04:48:48;3.13;;;1.00;;
66559;SDS011;53413;49.878;8.142;2023-12-20T04:51:14;3.30;;;0.95;;
66559;SDS011;53413;49.878;8.142;2023-12-20T04:53:39;4.17;;;1.10;;
66559;SDS011;53413;49.878;8.142;2023-12-20T04:56:05;3.10;;;0.80;;
66559;SDS011;53413;49.878;8.142;2023-12-20T04:58:30;3.03;;;0.90;;
66559;SDS011;53413;49.878;8.142;2023-12-20T05:00:56;3.67;;;0.90;;
66559;SDS011;53413;49.878;8.142;2023-12-20T05:03:21;3.13;;;0.93;;
66559;SDS011;53413;49.878;8.142;2023-12-20T05:05:46;3.13;;;0.97;;
66559;SDS011;53413;49.878;8.142;2023-12-20T05:08:12;3.20;;;1.03;;
66559;SDS011;53413;49.878;8.142;2023-12-20T05:10:37;5.17;;;1.20;;
66559;SDS011;53413;49.878;8.142;2023-12-20T05:13:03;4.37;;;1.17;;
66559;SDS011;53413;49.878;8.142;2023-12-20T05:15:28;5.05;;;0.90;;
66559;SDS011;53413;49.878;8.142;2023-12-20T05:17:53;4.53;;;0.90;;
66559;SDS011;53413;49.878;8.142;2023-12-20T05:20:19;5.90;;;1.10;;
66559;SDS011;53413;49.878;8.142;2023-12-20T05:22:44;3.97;;;1.17;;
66559;SDS011;53413;49.878;8.142;2023-12-20T05:25:10;6.60;;;1.70;;
66559;SDS011;53413;49.878;8.142;2023-12-20T05:27:35;4.88;;;1.20;;
66559;SDS011;53413;49.878;8.142;2023-12-20T05:30:01;4.03;;;1.20;;
66559;SDS011;53413;49.878;8.142;2023-12-20T05:32:26;6.50;;;1.20;;
66559;SDS011;53413;49.878;8.142;2023-12-20T05:34:51;3.53;;;1.10;;
66559;SDS011;53413;49.878;8.142;2023-12-20T05:37:17;4.03;;;1.10;;
66559;SDS011;53413;49.878;8.142;2023-12-20T05:39:42;7.47;;;1.30;;
66559;SDS011;53413;49.878;8.142;2023-12-20T05:42:07;4.53;;;1.20;;
66559;SDS011;53413;49.878;8.142;2023-12-20T05:44:33;4.80;;;1.20;;
66559;SDS011;53413;49.878;8.142;2023-12-20T05:46:58;3.78;;;1.10;;
66559;SDS011;53413;49.878;8.142;2023-12-20T05:49:23;4.13;;;1.10;;
66559;SDS011;53413;49.878;8.142;2023-12-20T05:51:48;4.00;;;1.00;;
66559;SDS011;53413;49.878;8.142;2023-12-20T05:54:16;3.80;;;1.20;;
66559;SDS011;53413;49.878;8.142;2023-12-20T05:56:41;5.57;;;1.20;;
66559;SDS011;53413;49.878;8.142;2023-12-20T05:59:06;5.53;;;1.30;;
66559;SDS011;53413;49.878;8.142;2023-12-20T06:01:32;5.70;;;1.00;;
66559;SDS011;53413;49.878;8.142;2023-12-20T06:03:57;5.13;;;1.10;;
66559;SDS011;53413;49.878;8.142;2023-12-20T06:06:23;4.27;;;1.10;;
66559;SDS011;53413;49.878;8.142;2023-12-20T06:08:48;5.00;;;1.13;;
66559;SDS011;53413;49.878;8.142;2023-12-20T06:11:14;5.83;;;1.20;;
66559;SDS011;53413;49.878;8.142;2023-12-20T06:13:39;5.47;;;1.00;;
66559;SDS011;53413;49.878;8.142;2023-12-20T06:16:05;4.55;;;1.30;;
66559;SDS011;53413;49.878;8.142;2023-12-20T06:18:32;3.40;;;1.07;;
66559;SDS011;53413;49.878;8.142;2023-12-20T06:20:57;4.22;;;1.25;;
66559;SDS011;53413;49.878;8.142;2023-12-20T06:23:22;3.87;;;1.10;;
66559;SDS011;53413;49.878;8.142;2023-12-20T06:25:48;4.20;;;1.00;;
66559;SDS011;53413;49.878;8.142;2023-12-20T06:28:13;3.73;;;1.00;;
66559;SDS011;53413;49.878;8.142;2023-12-20T06:30:39;4.57;;;1.20;;
66559;SDS011;53413;49.878;8.142;2023-12-20T06:33:05;3.10;;;1.00;;
66559;SDS011;53413;49.878;8.142;2023-12-20T06:35:31;7.05;;;1.60;;
66559;SDS011;53413;49.878;8.142;2023-12-20T06:37:57;4.40;;;1.07;;
66559;SDS011;53413;49.878;8.142;2023-12-20T06:40:23;4.28;;;0.95;;
66559;SDS011;53413;49.878;8.142;2023-12-20T06:42:48;4.70;;;1.17;;
66559;SDS011;53413;49.878;8.142;2023-12-20T06:45:14;3.40;;;1.10;;
66559;SDS011;53413;49.878;8.142;2023-12-20T06:47:39;3.40;;;1.00;;
66559;SDS011;53413;49.878;8.142;2023-12-20T06:50:05;3.95;;;0.93;;
66559;SDS011;53413;49.878;8.142;2023-12-20T06:52:30;4.47;;;1.00;;
66559;SDS011;53413;49.878;8.142;2023-12-20T06:54:56;4.97;;;1.03;;
66559;SDS011;53413;49.878;8.142;2023-12-20T06:57:21;6.07;;;1.02;;
66559;SDS011;53413;49.878;8.142;2023-12-20T06:59:46;4.65;;;1.08;;
66559;SDS011;53413;49.878;8.142;2023-12-20T07:02:12;4.67;;;1.03;;
66559;SDS011;53413;49.878;8.142;2023-12-20T07:04:40;5.93;;;1.10;;
66559;SDS011;53413;49.878;8.142;2023-12-20T07:07:06;6.18;;;1.30;;
66559;SDS011;53413;49.878;8.142;2023-12-20T07:09:32;5.43;;;1.17;;
66559;SDS011;53413;49.878;8.142;2023-12-20T07:11:57;4.07;;;0.90;;
66559;SDS011;53413;49.878;8.142;2023-12-20T07:14:23;6.77;;;1.27;;
66559;SDS011;53413;49.878;8.142;2023-12-20T07:16:48;5.03;;;1.20;;
66559;SDS011;53413;49.878;8.142;2023-12-20T07:19:14;5.10;;;1.20;;
66559;SDS011;53413;49.878;8.142;2023-12-20T07:21:39;4.82;;;1.30;;
66559;SDS011;53413;49.878;8.142;2023-12-20T07:24:05;5.57;;;1.20;;
66559;SDS011;53413;49.878;8.142;2023-12-20T07:26:30;4.53;;;1.10;;
66559;SDS011;53413;49.878;8.142;2023-12-20T07:28:55;6.73;;;1.10;;
66559;SDS011;53413;49.878;8.142;2023-12-20T07:31:21;5.57;;;1.20;;
66559;SDS011;53413;49.878;8.142;2023-12-20T07:33:46;5.90;;;1.10;;
66559;SDS011;53413;49.878;8.142;2023-12-20T07:36:12;5.55;;;1.05;;
66559;SDS011;53413;49.878;8.142;2023-12-20T07:38:37;6.55;;;1.13;;
66559;SDS011;53413;49.878;8.142;2023-12-20T07:41:03;6.07;;;1.00;;
66559;SDS011;53413;49.878;8.142;2023-12-20T07:43:28;5.07;;;1.00;;
66559;SDS011;53413;49.878;8.142;2023-12-20T07:45:54;4.47;;;1.13;;
66559;SDS011;53413;49.878;8.142;2023-12-20T07:48:19;4.40;;;1.30;;
66559;SDS011;53413;49.878;8.142;2023-12-20T07:50:44;5.10;;;1.10;;
66559;SDS011;53413;49.878;8.142;2023-12-20T07:53:09;4.83;;;1.27;;
66559;SDS011;53413;49.878;8.142;2023-12-20T07:55:35;6.43;;;1.10;;
66559;SDS011;53413;49.878;8.142;2023-12-20T07:58:00;5.67;;;1.00;;
66559;SDS011;53413;49.878;8.142;2023-12-20T08:00:26;4.60;;;0.97;;
66559;SDS011;53413;49.878;8.142;2023-12-20T08:02:52;4.22;;;1.20;;
66559;SDS011;53413;49.878;8.142;2023-12-20T08:05:17;4.03;;;1.00;;
66559;SDS011;53413;49.878;8.142;2023-12-20T08:07:42;5.47;;;1.08;;
66559;SDS011;53413;49.878;8.142;2023-12-20T08:10:08;6.47;;;1.10;;
66559;SDS011;53413;49.878;8.142;2023-12-20T08:12:33;3.83;;;0.80;;
66559;SDS011;53413;49.878;8.142;2023-12-20T08:14:59;3.87;;;0.90;;
66559;SDS011;53413;49.878;8.142;2023-12-20T08:17:25;5.28;;;0.80;;
66559;SDS011;53413;49.878;8.142;2023-12-20T08:19:50;5.67;;;0.70;;
66559;SDS011;53413;49.878;8.142;2023-12-20T08:22:16;3.58;;;1.10;;
66559;SDS011;53413;49.878;8.142;2023-12-20T08:24:41;4.50;;;1.43;;
66559;SDS011;53413;49.878;8.142;2023-12-20T08:27:07;3.67;;;1.20;;
66559;SDS011;53413;49.878;8.142;2023-12-20T08:29:32;4.97;;;1.17;;
66559;SDS011;53413;49.878;8.142;2023-12-20T08:31:59;4.67;;;0.90;;
66559;SDS011;53413;49.878;8.142;2023-12-20T08:34:24;4.88;;;1.00;;
66559;SDS011;53413;49.878;8.142;2023-12-20T08:36:50;4.47;;;1.20;;
66559;SDS011;53413;49.878;8.142;2023-12-20T08:39:16;4.10;;;1.30;;
66559;SDS011;53413;49.878;8.142;2023-12-20T08:41:41;5.17;;;1.50;;
66559;SDS011;53413;49.878;8.142;2023-12-20T08:44:07;5.37;;;1.10;;
66559;SDS011;53413;49.878;8.142;2023-12-20T08:46:32;4.73;;;1.20;;
66559;SDS011;53413;49.878;8.142;2023-12-20T08:48:57;4.15;;;1.00;;
66559;SDS011;53413;49.878;8.142;2023-12-20T08:51:23;4.90;;;1.00;;
66559;SDS011;53413;49.878;8.142;2023-12-20T08:53:50;3.70;;;0.80;;
66559;SDS011;53413;49.878;8.142;2023-12-20T08:56:16;5.68;;;1.10;;
66559;SDS011;53413;49.878;8.142;2023-12-20T08:58:42;3.70;;;0.93;;
66559;SDS011;53413;49.878;8.142;2023-12-20T09:01:08;3.27;;;0.97;;
66559;SDS011;53413;49.878;8.142;2023-12-20T09:03:33;3.67;;;1.08;;
66559;SDS011;53413;49.878;8.142;2023-12-20T09:05:59;6.35;;;1.10;;
66559;SDS011;53413;49.878;8.142;2023-12-20T09:08:24;6.97;;;1.23;;
66559;SDS011;53413;49.878;8.142;2023-12-20T09:10:49;6.33;;;1.10;;
66559;SDS011;53413;49.878;8.142;2023-12-20T09:13:15;4.83;;;1.10;;
66559;SDS011;53413;49.878;8.142;2023-12-20T09:15:40;5.87;;;1.30;;
66559;SDS011;53413;49.878;8.142;2023-12-20T09:18:06;7.50;;;1.30;;
66559;SDS011;53413;49.878;8.142;2023-12-20T09:20:32;3.97;;;1.00;;
66559;SDS011;53413;49.878;8.142;2023-12-20T09:22:57;5.18;;;1.05;;
66559;SDS011;53413;49.878;8.142;2023-12-20T09:25:23;6.77;;;1.40;;
66559;SDS011;53413;49.878;8.142;2023-12-20T09:27:48;4.40;;;1.07;;
66559;SDS011;53413;49.878;8.142;2023-12-20T09:30:14;4.97;;;1.10;;
66559;SDS011;53413;49.878;8.142;2023-12-20T09:32:39;4.60;;;1.23;;
66559;SDS011;53413;49.878;8.142;2023-12-20T09:35:05;6.00;;;1.30;;
66559;SDS011;53413;49.878;8.142;2023-12-20T09:37:31;4.13;;;1.10;;
66559;SDS011;53413;49.878;8.142;2023-12-20T09:39:56;4.55;;;1.08;;
66559;SDS011;53413;49.878;8.142;2023-12-20T09:42:29;5.07;;;1.30;;
66559;SDS011;53413;49.878;8.142;2023-12-20T09:45:03;4.40;;;1.03;;
66559;SDS011;53413;49.878;8.142;2023-12-20T09:47:33;6.05;;;1.20;;
66559;SDS011;53413;49.878;8.142;2023-12-20T09:49:58;6.70;;;1.30;;
66559;SDS011;53413;49.878;8.142;2023-12-20T09:52:24;3.23;;;1.10;;
66559;SDS011;53413;49.878;8.142;2023-12-20T09:54:49;5.63;;;1.20;;
66559;SDS011;53413;49.878;8.142;2023-12-20T09:57:18;6.18;;;1.20;;
66559;SDS011;53413;49.878;8.142;2023-12-20T09:59:43;5.67;;;1.13;;
66559;SDS011;53413;49.878;8.142;2023-12-20T10:02:09;6.40;;;1.15;;
66559;SDS011;53413;49.878;8.142;2023-12-20T10:04:39;5.60;;;1.30;;
66559;SDS011;53413;49.878;8.142;2023-12-20T10:07:12;7.03;;;1.20;;
66559;SDS011;53413;49.878;8.142;2023-12-20T10:09:38;6.23;;;1.20;;
66559;SDS011;53413;49.878;8.142;2023-12-20T10:12:03;5.10;;;1.10;;
66559;SDS011;53413;49.878;8.142;2023-12-20T10:14:30;4.72;;;1.05;;
66559;SDS011;53413;49.878;8.142;2023-12-20T10:17:01;5.90;;;1.20;;
66559;SDS011;53413;49.878;8.142;2023-12-20T10:19:28;5.07;;;1.10;;
66559;SDS011;53413;49.878;8.142;2023-12-20T10:21:53;5.63;;;1.20;;
66559;SDS011;53413;49.878;8.142;2023-12-20T10:24:18;4.67;;;1.30;;
66559;SDS011;53413;49.878;8.142;2023-12-20T10:26:44;3.95;;;1.08;;
66559;SDS011;53413;49.878;8.142;2023-12-20T10:29:09;5.73;;;1.47;;
66559;SDS011;53413;49.878;8.142;2023-12-20T10:31:35;5.60;;;1.20;;
66559;SDS011;53413;49.878;8.142;2023-12-20T10:34:01;4.40;;;1.02;;
66559;SDS011;53413;49.878;8.142;2023-12-20T10:36:28;7.65;;;1.33;;
66559;SDS011;53413;49.878;8.142;2023-12-20T10:38:55;5.60;;;1.30;;
66559;SDS011;53413;49.878;8.142;2023-12-20T10:41:29;4.78;;;1.23;;
66559;SDS011;53413;49.878;8.142;2023-12-20T10:44:02;4.80;;;1.30;;
66559;SDS011;53413;49.878;8.142;2023-12-20T10:46:34;4.68;;;1.35;;
66559;SDS011;53413;49.878;8.142;2023-12-20T10:49:00;5.95;;;1.25;;
66559;SDS011;53413;49.878;8.142;2023-12-20T10:51:27;5.50;;;1.50;;
66559;SDS011;53413;49.878;8.142;2023-12-20T10:53:54;6.40;;;1.60;;
66559;SDS011;53413;49.878;8.142;2023-12-20T10:56:20;6.65;;;1.50;;
66559;SDS011;53413;49.878;8.142;2023-12-20T10:58:46;6.30;;;1.10;;
66559;SDS011;53413;49.878;8.142;2023-12-20T11:01:13;4.60;;;1.20;;
66559;SDS011;53413;49.878;8.142;2023-12-20T11:03:44;4.40;;;1.10;;
66559;SDS011;53413;49.878;8.142;2023-12-20T11:06:18;5.15;;;1.10;;
66559;SDS011;53413;49.878;8.142;2023-12-20T11:12:02;6.75;;;1.58;;
66559;SDS011;53413;49.878;8.142;2023-12-20T11:14:51;4.70;;;1.95;;
66559;SDS011;53413;49.878;8.142;2023-12-20T11:17:20;5.72;;;1.58;;
66559;SDS011;53413;49.878;8.142;2023-12-20T11:22:18;5.80;;;1.20;;
66559;SDS011;53413;49.878;8.142;2023-12-20T11:24:45;3.72;;;1.00;;
66559;SDS011;53413;49.878;8.142;2023-12-20T11:27:12;4.87;;;1.30;;
66559;SDS011;53413;49.878;8.142;2023-12-20T11:29:38;6.78;;;1.20;;
66559;SDS011;53413;49.878;8.142;2023-12-20T11:32:49;5.03;;;1.17;;
66559;SDS011;53413;49.878;8.142;2023-12-20T11:34:54;4.03;;;1.10;;
66559;SDS011;53413;49.878;8.142;2023-12-20T11:37:20;4.60;;;1.20;;
66559;SDS011;53413;49.878;8.142;2023-12-20T11:39:56;4.30;;;1.00;;
66559;SDS011;53413;49.878;8.142;2023-12-20T11:42:25;6.55;;;1.00;;
66559;SDS011;53413;49.878;8.142;2023-12-20T11:44:51;5.57;;;1.30;;
66559;SDS011;53413;49.878;8.142;2023-12-20T11:47:16;5.97;;;1.40;;
66559;SDS011;53413;49.878;8.142;2023-12-20T11:49:44;5.60;;;1.40;;
66559;SDS011;53413;49.878;8.142;2023-12-20T11:52:11;5.80;;;1.40;;
66559;SDS011;53413;49.878;8.142;2023-12-20T11:54:37;4.47;;;1.20;;
66559;SDS011;53413;49.878;8.142;2023-12-20T11:57:02;7.93;;;1.57;;
66559;SDS011;53413;49.878;8.142;2023-12-20T11:59:28;6.03;;;1.30;;
66559;SDS011;53413;49.878;8.142;2023-12-20T12:01:53;5.63;;;1.30;;
66559;SDS011;53413;49.878;8.142;2023-12-20T12:04:21;4.93;;;1.30;;
66559;SDS011;53413;49.878;8.142;2023-12-20T12:06:46;4.97;;;1.20;;
66559;SDS011;53413;49.878;8.142;2023-12-20T12:09:13;5.90;;;1.10;;
66559;SDS011;53413;49.878;8.142;2023-12-20T12:11:38;8.02;;;1.30;;
66559;SDS011;53413;49.878;8.142;2023-12-20T12:14:04;5.20;;;1.30;;
66559;SDS011;53413;49.878;8.142;2023-12-20T12:16:29;5.70;;;1.40;;
66559;SDS011;53413;49.878;8.142;2023-12-20T12:18:58;4.33;;;1.40;;
66559;SDS011;53413;49.878;8.142;2023-12-20T12:21:24;6.63;;;1.40;;
66559;SDS011;53413;49.878;8.142;2023-12-20T12:23:49;7.72;;;1.40;;
66559;SDS011;53413;49.878;8.142;2023-12-20T12:26:15;4.45;;;1.25;;
66559;SDS011;53413;49.878;8.142;2023-12-20T12:28:41;8.23;;;1.80;;
66559;SDS011;53413;49.878;8.142;2023-12-20T12:31:07;6.70;;;1.63;;
66559;SDS011;53413;49.878;8.142;2023-12-20T12:33:33;5.80;;;1.42;;
66559;SDS011;53413;49.878;8.142;2023-12-20T12:36:00;7.22;;;1.52;;
66559;SDS011;53413;49.878;8.142;2023-12-20T12:38:26;8.33;;;2.43;;
66559;SDS011;53413;49.878;8.142;2023-12-20T12:40:52;5.03;;;1.70;;
66559;SDS011;53413;49.878;8.142;2023-12-20T12:43:18;3.90;;;1.30;;
66559;SDS011;53413;49.878;8.142;2023-12-20T12:45:44;5.38;;;1.35;;
66559;SDS011;53413;49.878;8.142;2023-12-20T12:48:09;5.43;;;1.60;;
66559;SDS011;53413;49.878;8.142;2023-12-20T12:50:35;5.53;;;1.30;;
66559;SDS011;53413;49.878;8.142;2023-12-20T12:53:00;4.83;;;1.30;;
66559;SDS011;53413;49.878;8.142;2023-12-20T12:55:27;5.70;;;1.35;;
66559;SDS011;53413;49.878;8.142;2023-12-20T12:57:53;6.45;;;1.38;;
66559;SDS011;53413;49.878;8.142;2023-12-20T13:00:18;5.87;;;1.47;;
66559;SDS011;53413;49.878;8.142;2023-12-20T13:02:44;5.00;;;1.38;;
66559;SDS011;53413;49.878;8.142;2023-12-20T13:05:10;4.63;;;1.40;;
66559;SDS011;53413;49.878;8.142;2023-12-20T13:07:35;5.10;;;1.40;;
66559;SDS011;53413;49.878;8.142;2023-12-20T13:10:02;6.95;;;1.48;;
66559;SDS011;53413;49.878;8.142;2023-12-20T13:12:28;5.97;;;1.40;;
66559;SDS011;53413;49.878;8.142;2023-12-20T13:14:54;4.77;;;1.30;;
66559;SDS011;53413;49.878;8.142;2023-12-20T13:17:19;5.83;;;1.40;;
66559;SDS011;53413;49.878;8.142;2023-12-20T13:19:45;5.72;;;1.30;;
66559;SDS011;53413;49.878;8.142;2023-12-20T13:22:10;4.40;;;1.10;;
66559;SDS011;53413;49.878;8.142;2023-12-20T13:24:35;5.27;;;1.43;;
66559;SDS011;53413;49.878;8.142;2023-12-20T13:27:01;4.80;;;1.00;;
66559;SDS011;53413;49.878;8.142;2023-12-20T13:29:26;3.53;;;1.20;;
66559;SDS011;53413;49.878;8.142;2023-12-20T13:31:54;5.40;;;1.33;;
66559;SDS011;53413;49.878;8.142;2023-12-20T13:34:20;5.57;;;1.27;;
66559;SDS011;53413;49.878;8.142;2023-12-20T13:36:46;3.35;;;0.98;;
66559;SDS011;53413;49.878;8.142;2023-12-20T13:39:12;4.03;;;0.80;;
66559;SDS011;53413;49.878;8.142;2023-12-20T13:41:39;5.17;;;1.03;;
66559;SDS011;53413;49.878;8.142;2023-12-20T13:44:04;4.32;;;1.20;;
66559;SDS011;53413;49.878;8.142;2023-12-20T13:46:29;3.93;;;1.00;;
66559;SDS011;53413;49.878;8.142;2023-12-20T13:48:55;3.75;;;1.00;;
66559;SDS011;53413;49.878;8.142;2023-12-20T13:51:20;4.85;;;1.23;;
66559;SDS011;53413;49.878;8.142;2023-12-20T13:53:46;4.53;;;1.10;;
66559;SDS011;53413;49.878;8.142;2023-12-20T13:56:13;5.40;;;1.10;;
66559;SDS011;53413;49.878;8.142;2023-12-20T13:58:39;5.07;;;1.20;;
66559;SDS011;53413;49.878;8.142;2023-12-20T14:01:05;5.63;;;1.30;;
66559;SDS011;53413;49.878;8.142;2023-12-20T14:03:30;4.73;;;1.10;;
66559;SDS011;53413;49.878;8.142;2023-12-20T14:05:56;4.23;;;0.90;;
66559;SDS011;53413;49.878;8.142;2023-12-20T14:08:21;4.37;;;1.00;;
66559;SDS011;53413;49.878;8.142;2023-12-20T14:10:47;4.15;;;0.80;;
66559;SDS011;53413;49.878;8.142;2023-12-20T14:13:12;5.73;;;1.00;;
66559;SDS011;53413;49.878;8.142;2023-12-20T14:15:38;5.40;;;1.20;;
66559;SDS011;53413;49.878;8.142;2023-12-20T14:18:07;3.08;;;1.08;;
66559;SDS011;53413;49.878;8.142;2023-12-20T14:20:33;3.37;;;1.00;;
66559;SDS011;53413;49.878;8.142;2023-12-20T14:23:00;4.32;;;1.13;;
66559;SDS011;53413;49.878;8.142;2023-12-20T14:25:26;5.95;;;1.30;;
66559;SDS011;53413;49.878;8.142;2023-12-20T14:27:52;4.13;;;0.87;;
66559;SDS011;53413;49.878;8.142;2023-12-20T14:30:17;4.70;;;1.00;;
66559;SDS011;53413;49.878;8.142;2023-12-20T14:32:42;3.92;;;0.80;;
66559;SDS011;53413;49.878;8.142;2023-12-20T14:35:08;5.13;;;1.10;;
66559;SDS011;53413;49.878;8.142;2023-12-20T14:37:34;3.67;;;0.90;;
66559;SDS011;53413;49.878;8.142;2023-12-20T14:40:00;4.35;;;0.95;;
66559;SDS011;53413;49.878;8.142;2023-12-20T14:42:26;5.85;;;1.15;;
66559;SDS011;53413;49.878;8.142;2023-12-20T14:44:51;4.13;;;0.90;;
66559;SDS011;53413;49.878;8.142;2023-12-20T14:47:17;4.32;;;0.90;;